sensor_id;sensor_type;location;lat;lon;timestamp;P1;durP1;ratioP1;P2;durP2;ratioP2
21615;SDS011;10970;48.714;9.584;2023-06-22T00:00:50;2.57;;;1.70;;
21615;SDS011;10970;48.714;9.584;2023-06-22T00:03:20;2.70;;;2.50;;
21615;SDS011;10970;48.714;9.584;2023-06-22T00:05:47;4.53;;;3.10;;
21615;SDS011;10970;48.714;9.584;2023-06-22T00:08:12;2.33;;;2.13;;
21615;SDS011;10970;48.714;9.584;2023-06-22T00:10:38;2.30;;;2.10;;
21615;SDS011;10970;48.714;9.584;2023-06-22T00:13:05;3.00;;;2.37;;
21615;SDS011;10970;48.714;9.584;2023-06-22T00:15:31;1.93;;;1.83;;
21615;SDS011;10970;48.714;9.584;2023-06-22T00:17:57;2.70;;;2.13;;
21615;SDS011;10970;48.714;9.584;2023-06-22T00:20:23;2.23;;;1.80;;
21615;SDS011;10970;48.714;9.584;2023-06-22T00:22:56;1.97;;;1.50;;
21615;SDS011;10970;48.714;9.584;2023-06-22T00:25:22;3.27;;;2.20;;
21615;SDS011;10970;48.714;9.584;2023-06-22T00:27:49;2.00;;;1.90;;
21615;SDS011;10970;48.714;9.584;2023-06-22T00:30:15;2.63;;;2.00;;
21615;SDS011;10970;48.714;9.584;2023-06-22T00:32:41;2.10;;;1.77;;
21615;SDS011;10970;48.714;9.584;2023-06-22T00:35:07;1.90;;;1.50;;
21615;SDS011;10970;48.714;9.584;2023-06-22T00:37:35;2.13;;;1.83;;
21615;SDS011;10970;48.714;9.584;2023-06-22T00:40:01;2.50;;;2.13;;
21615;SDS011;10970;48.714;9.584;2023-06-22T00:42:27;2.50;;;1.50;;
21615;SDS011;10970;48.714;9.584;2023-06-22T00:44:53;2.30;;;1.70;;
21615;SDS011;10970;48.714;9.584;2023-06-22T00:47:19;4.10;;;2.27;;
21615;SDS011;10970;48.714;9.584;2023-06-22T00:49:45;7.73;;;2.10;;
21615;SDS011;10970;48.714;9.584;2023-06-22T00:52:13;2.60;;;2.40;;
21615;SDS011;10970;48.714;9.584;2023-06-22T00:54:45;2.97;;;2.63;;
21615;SDS011;10970;48.714;9.584;2023-06-22T00:57:15;6.83;;;2.40;;
21615;SDS011;10970;48.714;9.584;2023-06-22T00:59:42;3.37;;;2.30;;
21615;SDS011;10970;48.714;9.584;2023-06-22T01:02:12;2.70;;;2.40;;
21615;SDS011;10970;48.714;9.584;2023-06-22T01:04:38;3.03;;;2.17;;
21615;SDS011;10970;48.714;9.584;2023-06-22T01:10:00;2.73;;;2.50;;
21615;SDS011;10970;48.714;9.584;2023-06-22T01:12:27;2.90;;;2.00;;
21615;SDS011;10970;48.714;9.584;2023-06-22T01:15:10;3.40;;;2.10;;
21615;SDS011;10970;48.714;9.584;2023-06-22T01:17:40;3.07;;;2.30;;
21615;SDS011;10970;48.714;9.584;2023-06-22T01:20:08;2.40;;;1.27;;
21615;SDS011;10970;48.714;9.584;2023-06-22T01:22:41;3.43;;;2.40;;
21615;SDS011;10970;48.714;9.584;2023-06-22T01:25:26;2.60;;;2.17;;
21615;SDS011;10970;48.714;9.584;2023-06-22T01:30:40;2.80;;;2.40;;
21615;SDS011;10970;48.714;9.584;2023-06-22T01:33:08;1.63;;;1.53;;
21615;SDS011;10970;48.714;9.584;2023-06-22T01:35:36;2.77;;;2.40;;
21615;SDS011;10970;48.714;9.584;2023-06-22T01:38:03;2.23;;;2.00;;
21615;SDS011;10970;48.714;9.584;2023-06-22T01:40:29;2.73;;;2.00;;
21615;SDS011;10970;48.714;9.584;2023-06-22T01:42:56;2.43;;;2.23;;
21615;SDS011;10970;48.714;9.584;2023-06-22T01:45:23;2.47;;;2.27;;
21615;SDS011;10970;48.714;9.584;2023-06-22T01:47:49;3.57;;;2.57;;
21615;SDS011;10970;48.714;9.584;2023-06-22T01:50:15;2.20;;;2.00;;
21615;SDS011;10970;48.714;9.584;2023-06-22T01:52:41;3.07;;;2.27;;
21615;SDS011;10970;48.714;9.584;2023-06-22T01:55:06;1.43;;;1.30;;
21615;SDS011;10970;48.714;9.584;2023-06-22T01:57:33;2.13;;;1.40;;
21615;SDS011;10970;48.714;9.584;2023-06-22T02:00:00;2.53;;;2.10;;
21615;SDS011;10970;48.714;9.584;2023-06-22T02:02:33;2.97;;;2.20;;
21615;SDS011;10970;48.714;9.584;2023-06-22T02:05:07;2.20;;;2.00;;
21615;SDS011;10970;48.714;9.584;2023-06-22T02:07:46;1.90;;;1.80;;
21615;SDS011;10970;48.714;9.584;2023-06-22T02:10:17;4.07;;;2.03;;
21615;SDS011;10970;48.714;9.584;2023-06-22T02:12:46;3.00;;;2.40;;
21615;SDS011;10970;48.714;9.584;2023-06-22T02:15:12;2.23;;;1.77;;
21615;SDS011;10970;48.714;9.584;2023-06-22T02:17:39;2.80;;;1.97;;
21615;SDS011;10970;48.714;9.584;2023-06-22T02:20:19;2.33;;;2.10;;
21615;SDS011;10970;48.714;9.584;2023-06-22T02:22:45;2.83;;;2.10;;
21615;SDS011;10970;48.714;9.584;2023-06-22T02:25:10;3.70;;;2.60;;
21615;SDS011;10970;48.714;9.584;2023-06-22T02:27:36;1.30;;;1.20;;
21615;SDS011;10970;48.714;9.584;2023-06-22T02:30:05;1.60;;;1.50;;
21615;SDS011;10970;48.714;9.584;2023-06-22T02:32:35;1.83;;;1.73;;
21615;SDS011;10970;48.714;9.584;2023-06-22T02:35:01;1.50;;;1.40;;
21615;SDS011;10970;48.714;9.584;2023-06-22T02:37:30;2.80;;;2.57;;
21615;SDS011;10970;48.714;9.584;2023-06-22T02:39:56;3.03;;;2.17;;
21615;SDS011;10970;48.714;9.584;2023-06-22T02:42:22;2.53;;;1.87;;
21615;SDS011;10970;48.714;9.584;2023-06-22T02:44:47;2.80;;;2.40;;
21615;SDS011;10970;48.714;9.584;2023-06-22T02:47:13;4.73;;;1.93;;
21615;SDS011;10970;48.714;9.584;2023-06-22T02:49:39;2.87;;;2.33;;
21615;SDS011;10970;48.714;9.584;2023-06-22T02:52:04;3.77;;;2.60;;
21615;SDS011;10970;48.714;9.584;2023-06-22T02:54:30;1.70;;;1.57;;
21615;SDS011;10970;48.714;9.584;2023-06-22T02:56:56;2.40;;;1.90;;
21615;SDS011;10970;48.714;9.584;2023-06-22T02:59:22;2.40;;;2.20;;
21615;SDS011;10970;48.714;9.584;2023-06-22T03:01:51;3.07;;;2.30;;
21615;SDS011;10970;48.714;9.584;2023-06-22T03:04:17;2.67;;;1.80;;
21615;SDS011;10970;48.714;9.584;2023-06-22T03:06:43;3.53;;;2.33;;
21615;SDS011;10970;48.714;9.584;2023-06-22T03:09:09;2.37;;;1.50;;
21615;SDS011;10970;48.714;9.584;2023-06-22T03:11:34;2.13;;;1.57;;
21615;SDS011;10970;48.714;9.584;2023-06-22T03:14:00;1.70;;;1.60;;
21615;SDS011;10970;48.714;9.584;2023-06-22T03:16:26;2.33;;;2.13;;
21615;SDS011;10970;48.714;9.584;2023-06-22T03:18:52;1.73;;;1.63;;
21615;SDS011;10970;48.714;9.584;2023-06-22T03:21:18;2.53;;;2.33;;
21615;SDS011;10970;48.714;9.584;2023-06-22T03:23:44;2.23;;;1.83;;
21615;SDS011;10970;48.714;9.584;2023-06-22T03:26:10;3.43;;;2.03;;
21615;SDS011;10970;48.714;9.584;2023-06-22T03:28:36;2.23;;;2.03;;
21615;SDS011;10970;48.714;9.584;2023-06-22T03:31:03;2.80;;;2.30;;
21615;SDS011;10970;48.714;9.584;2023-06-22T03:33:29;4.00;;;2.57;;
21615;SDS011;10970;48.714;9.584;2023-06-22T03:35:55;2.40;;;2.20;;
21615;SDS011;10970;48.714;9.584;2023-06-22T03:38:20;5.40;;;2.37;;
21615;SDS011;10970;48.714;9.584;2023-06-22T03:40:46;3.63;;;2.97;;
21615;SDS011;10970;48.714;9.584;2023-06-22T03:43:11;2.77;;;2.57;;
21615;SDS011;10970;48.714;9.584;2023-06-22T03:45:37;3.60;;;1.80;;
21615;SDS011;10970;48.714;9.584;2023-06-22T03:48:03;2.80;;;2.13;;
21615;SDS011;10970;48.714;9.584;2023-06-22T03:50:29;2.10;;;1.90;;
21615;SDS011;10970;48.714;9.584;2023-06-22T03:52:55;4.10;;;2.37;;
21615;SDS011;10970;48.714;9.584;2023-06-22T03:55:20;3.40;;;3.10;;
21615;SDS011;10970;48.714;9.584;2023-06-22T03:57:46;3.93;;;3.33;;
21615;SDS011;10970;48.714;9.584;2023-06-22T04:00:12;3.00;;;2.67;;
21615;SDS011;10970;48.714;9.584;2023-06-22T04:02:38;3.90;;;2.90;;
21615;SDS011;10970;48.714;9.584;2023-06-22T04:05:04;3.67;;;2.30;;
21615;SDS011;10970;48.714;9.584;2023-06-22T04:07:30;3.30;;;2.37;;
21615;SDS011;10970;48.714;9.584;2023-06-22T04:09:56;2.20;;;2.00;;
21615;SDS011;10970;48.714;9.584;2023-06-22T04:12:21;3.20;;;2.10;;
21615;SDS011;10970;48.714;9.584;2023-06-22T04:14:47;2.73;;;1.80;;
21615;SDS011;10970;48.714;9.584;2023-06-22T04:17:12;5.13;;;2.27;;
21615;SDS011;10970;48.714;9.584;2023-06-22T04:19:39;2.93;;;2.63;;
21615;SDS011;10970;48.714;9.584;2023-06-22T04:22:05;2.03;;;1.87;;
21615;SDS011;10970;48.714;9.584;2023-06-22T04:24:32;2.90;;;2.37;;
21615;SDS011;10970;48.714;9.584;2023-06-22T04:26:58;2.47;;;2.23;;
21615;SDS011;10970;48.714;9.584;2023-06-22T04:29:27;2.60;;;2.40;;
21615;SDS011;10970;48.714;9.584;2023-06-22T04:31:55;2.10;;;1.80;;
21615;SDS011;10970;48.714;9.584;2023-06-22T04:34:23;2.83;;;2.50;;
21615;SDS011;10970;48.714;9.584;2023-06-22T04:36:51;2.63;;;2.23;;
21615;SDS011;10970;48.714;9.584;2023-06-22T04:39:17;2.33;;;1.60;;
21615;SDS011;10970;48.714;9.584;2023-06-22T04:41:44;2.00;;;1.90;;
21615;SDS011;10970;48.714;9.584;2023-06-22T04:44:13;2.47;;;2.20;;
21615;SDS011;10970;48.714;9.584;2023-06-22T04:46:56;2.90;;;2.47;;
21615;SDS011;10970;48.714;9.584;2023-06-22T04:49:28;3.33;;;2.80;;
21615;SDS011;10970;48.714;9.584;2023-06-22T04:51:58;2.90;;;2.37;;
21615;SDS011;10970;48.714;9.584;2023-06-22T04:54:25;6.90;;;2.60;;
21615;SDS011;10970;48.714;9.584;2023-06-22T04:56:58;2.90;;;2.03;;
21615;SDS011;10970;48.714;9.584;2023-06-22T04:59:28;2.40;;;1.80;;
21615;SDS011;10970;48.714;9.584;2023-06-22T05:01:59;3.27;;;2.63;;
21615;SDS011;10970;48.714;9.584;2023-06-22T05:04:26;3.70;;;3.00;;
21615;SDS011;10970;48.714;9.584;2023-06-22T05:06:53;2.53;;;2.27;;
21615;SDS011;10970;48.714;9.584;2023-06-22T05:09:19;2.97;;;2.27;;
21615;SDS011;10970;48.714;9.584;2023-06-22T05:11:45;2.10;;;1.90;;
21615;SDS011;10970;48.714;9.584;2023-06-22T05:14:12;4.03;;;2.37;;
21615;SDS011;10970;48.714;9.584;2023-06-22T05:16:37;2.00;;;1.80;;
21615;SDS011;10970;48.714;9.584;2023-06-22T05:19:04;2.60;;;1.87;;
21615;SDS011;10970;48.714;9.584;2023-06-22T05:21:30;3.20;;;1.60;;
21615;SDS011;10970;48.714;9.584;2023-06-22T05:23:56;3.80;;;2.40;;
21615;SDS011;10970;48.714;9.584;2023-06-22T05:26:27;2.60;;;2.40;;
21615;SDS011;10970;48.714;9.584;2023-06-22T05:28:56;2.60;;;2.20;;
21615;SDS011;10970;48.714;9.584;2023-06-22T05:31:22;2.70;;;1.90;;
21615;SDS011;10970;48.714;9.584;2023-06-22T05:33:49;3.70;;;2.23;;
21615;SDS011;10970;48.714;9.584;2023-06-22T05:36:16;3.07;;;1.80;;
21615;SDS011;10970;48.714;9.584;2023-06-22T05:38:44;2.10;;;1.53;;
21615;SDS011;10970;48.714;9.584;2023-06-22T05:41:11;2.53;;;1.83;;
21615;SDS011;10970;48.714;9.584;2023-06-22T05:43:37;3.40;;;1.57;;
21615;SDS011;10970;48.714;9.584;2023-06-22T05:46:03;3.60;;;1.70;;
21615;SDS011;10970;48.714;9.584;2023-06-22T05:48:29;1.93;;;1.70;;
21615;SDS011;10970;48.714;9.584;2023-06-22T05:50:55;2.07;;;1.87;;
21615;SDS011;10970;48.714;9.584;2023-06-22T05:53:21;3.10;;;1.87;;
21615;SDS011;10970;48.714;9.584;2023-06-22T05:55:46;2.20;;;2.03;;
21615;SDS011;10970;48.714;9.584;2023-06-22T05:58:13;2.87;;;2.10;;
21615;SDS011;10970;48.714;9.584;2023-06-22T06:00:39;2.50;;;2.30;;
21615;SDS011;10970;48.714;9.584;2023-06-22T06:03:06;2.20;;;1.07;;
21615;SDS011;10970;48.714;9.584;2023-06-22T06:05:33;1.93;;;1.73;;
21615;SDS011;10970;48.714;9.584;2023-06-22T06:08:00;3.50;;;2.00;;
21615;SDS011;10970;48.714;9.584;2023-06-22T06:10:26;1.80;;;1.70;;
21615;SDS011;10970;48.714;9.584;2023-06-22T06:12:54;2.30;;;2.10;;
21615;SDS011;10970;48.714;9.584;2023-06-22T06:15:20;3.00;;;1.80;;
21615;SDS011;10970;48.714;9.584;2023-06-22T06:17:47;3.70;;;1.40;;
21615;SDS011;10970;48.714;9.584;2023-06-22T06:20:13;1.50;;;1.13;;
21615;SDS011;10970;48.714;9.584;2023-06-22T06:22:39;1.63;;;1.53;;
21615;SDS011;10970;48.714;9.584;2023-06-22T06:25:05;3.20;;;1.97;;
21615;SDS011;10970;48.714;9.584;2023-06-22T06:27:31;1.30;;;1.13;;
21615;SDS011;10970;48.714;9.584;2023-06-22T06:29:57;1.57;;;1.40;;
21615;SDS011;10970;48.714;9.584;2023-06-22T06:32:22;1.47;;;1.27;;
21615;SDS011;10970;48.714;9.584;2023-06-22T06:34:49;1.47;;;1.37;;
21615;SDS011;10970;48.714;9.584;2023-06-22T06:37:14;2.40;;;1.27;;
21615;SDS011;10970;48.714;9.584;2023-06-22T06:39:40;1.63;;;1.33;;
21615;SDS011;10970;48.714;9.584;2023-06-22T06:42:06;1.80;;;1.47;;
21615;SDS011;10970;48.714;9.584;2023-06-22T06:44:32;0.80;;;0.80;;
21615;SDS011;10970;48.714;9.584;2023-06-22T06:46:57;1.40;;;1.30;;
21615;SDS011;10970;48.714;9.584;2023-06-22T06:49:23;1.50;;;1.20;;
21615;SDS011;10970;48.714;9.584;2023-06-22T06:51:49;1.10;;;1.00;;
21615;SDS011;10970;48.714;9.584;2023-06-22T06:54:16;1.57;;;1.10;;
21615;SDS011;10970;48.714;9.584;2023-06-22T06:56:45;0.93;;;0.90;;
21615;SDS011;10970;48.714;9.584;2023-06-22T06:59:13;1.33;;;1.20;;
21615;SDS011;10970;48.714;9.584;2023-06-22T07:01:40;0.87;;;0.87;;
21615;SDS011;10970;48.714;9.584;2023-06-22T07:04:06;1.83;;;0.90;;
21615;SDS011;10970;48.714;9.584;2023-06-22T07:06:32;3.03;;;1.07;;
21615;SDS011;10970;48.714;9.584;2023-06-22T07:08:59;0.90;;;0.73;;
21615;SDS011;10970;48.714;9.584;2023-06-22T07:11:24;1.67;;;1.20;;
21615;SDS011;10970;48.714;9.584;2023-06-22T07:13:50;1.90;;;1.10;;
21615;SDS011;10970;48.714;9.584;2023-06-22T07:16:16;3.53;;;1.00;;
21615;SDS011;10970;48.714;9.584;2023-06-22T07:18:41;0.83;;;0.83;;
21615;SDS011;10970;48.714;9.584;2023-06-22T07:21:07;2.17;;;0.93;;
21615;SDS011;10970;48.714;9.584;2023-06-22T07:23:33;2.00;;;1.27;;
21615;SDS011;10970;48.714;9.584;2023-06-22T07:25:59;5.27;;;1.30;;
21615;SDS011;10970;48.714;9.584;2023-06-22T07:28:28;1.67;;;1.33;;
21615;SDS011;10970;48.714;9.584;2023-06-22T07:30:56;1.67;;;1.00;;
21615;SDS011;10970;48.714;9.584;2023-06-22T07:33:22;0.97;;;0.90;;
21615;SDS011;10970;48.714;9.584;2023-06-22T07:35:47;1.17;;;1.00;;
21615;SDS011;10970;48.714;9.584;2023-06-22T07:38:13;1.80;;;1.00;;
21615;SDS011;10970;48.714;9.584;2023-06-22T07:40:40;1.10;;;0.97;;
21615;SDS011;10970;48.714;9.584;2023-06-22T07:43:06;0.90;;;0.60;;
21615;SDS011;10970;48.714;9.584;2023-06-22T07:45:32;1.13;;;0.80;;
21615;SDS011;10970;48.714;9.584;2023-06-22T07:48:00;0.97;;;0.87;;
21615;SDS011;10970;48.714;9.584;2023-06-22T07:50:26;0.90;;;0.80;;
21615;SDS011;10970;48.714;9.584;2023-06-22T07:52:51;1.10;;;0.80;;
21615;SDS011;10970;48.714;9.584;2023-06-22T07:55:17;1.10;;;1.00;;
21615;SDS011;10970;48.714;9.584;2023-06-22T07:57:43;0.87;;;0.70;;
21615;SDS011;10970;48.714;9.584;2023-06-22T08:00:09;0.73;;;0.70;;
21615;SDS011;10970;48.714;9.584;2023-06-22T08:02:40;1.13;;;1.00;;
21615;SDS011;10970;48.714;9.584;2023-06-22T08:05:10;1.23;;;0.90;;
21615;SDS011;10970;48.714;9.584;2023-06-22T08:07:36;1.37;;;1.00;;
21615;SDS011;10970;48.714;9.584;2023-06-22T08:10:03;0.63;;;0.63;;
21615;SDS011;10970;48.714;9.584;2023-06-22T08:12:35;0.80;;;0.77;;
21615;SDS011;10970;48.714;9.584;2023-06-22T08:15:00;1.67;;;1.00;;
21615;SDS011;10970;48.714;9.584;2023-06-22T08:17:26;3.07;;;0.70;;
21615;SDS011;10970;48.714;9.584;2023-06-22T08:19:52;2.00;;;1.40;;
21615;SDS011;10970;48.714;9.584;2023-06-22T08:22:17;1.73;;;0.80;;
21615;SDS011;10970;48.714;9.584;2023-06-22T08:24:43;1.07;;;0.93;;
21615;SDS011;10970;48.714;9.584;2023-06-22T08:27:09;1.73;;;1.07;;
21615;SDS011;10970;48.714;9.584;2023-06-22T08:29:39;1.73;;;1.50;;
21615;SDS011;10970;48.714;9.584;2023-06-22T08:32:08;1.47;;;0.90;;
21615;SDS011;10970;48.714;9.584;2023-06-22T08:34:34;1.40;;;1.10;;
21615;SDS011;10970;48.714;9.584;2023-06-22T08:37:00;2.60;;;1.10;;
21615;SDS011;10970;48.714;9.584;2023-06-22T08:39:26;1.63;;;1.03;;
21615;SDS011;10970;48.714;9.584;2023-06-22T08:41:52;1.70;;;0.97;;
21615;SDS011;10970;48.714;9.584;2023-06-22T08:44:18;1.23;;;1.13;;
21615;SDS011;10970;48.714;9.584;2023-06-22T08:46:44;2.33;;;1.00;;
21615;SDS011;10970;48.714;9.584;2023-06-22T08:49:10;1.70;;;1.40;;
21615;SDS011;10970;48.714;9.584;2023-06-22T08:51:36;5.60;;;1.40;;
21615;SDS011;10970;48.714;9.584;2023-06-22T08:54:01;1.50;;;0.90;;
21615;SDS011;10970;48.714;9.584;2023-06-22T08:56:27;1.00;;;0.70;;
21615;SDS011;10970;48.714;9.584;2023-06-22T08:58:53;2.93;;;1.17;;
21615;SDS011;10970;48.714;9.584;2023-06-22T09:01:18;1.10;;;0.87;;
21615;SDS011;10970;48.714;9.584;2023-06-22T09:03:45;1.30;;;1.10;;
21615;SDS011;10970;48.714;9.584;2023-06-22T09:06:19;2.20;;;1.37;;
21615;SDS011;10970;48.714;9.584;2023-06-22T09:08:46;1.43;;;1.33;;
21615;SDS011;10970;48.714;9.584;2023-06-22T09:11:12;1.23;;;1.13;;
21615;SDS011;10970;48.714;9.584;2023-06-22T09:13:37;1.07;;;0.97;;
21615;SDS011;10970;48.714;9.584;2023-06-22T09:16:03;1.30;;;1.20;;
21615;SDS011;10970;48.714;9.584;2023-06-22T09:18:29;1.00;;;0.90;;
21615;SDS011;10970;48.714;9.584;2023-06-22T09:20:55;1.03;;;0.93;;
21615;SDS011;10970;48.714;9.584;2023-06-22T09:23:21;1.27;;;1.07;;
21615;SDS011;10970;48.714;9.584;2023-06-22T09:25:46;7.30;;;1.00;;
21615;SDS011;10970;48.714;9.584;2023-06-22T09:28:13;2.17;;;1.40;;
21615;SDS011;10970;48.714;9.584;2023-06-22T09:30:39;1.50;;;1.30;;
21615;SDS011;10970;48.714;9.584;2023-06-22T09:33:05;1.77;;;1.60;;
21615;SDS011;10970;48.714;9.584;2023-06-22T09:35:30;1.27;;;1.00;;
21615;SDS011;10970;48.714;9.584;2023-06-22T09:37:56;1.33;;;1.13;;
21615;SDS011;10970;48.714;9.584;2023-06-22T09:40:21;1.23;;;1.07;;
21615;SDS011;10970;48.714;9.584;2023-06-22T09:42:47;1.47;;;1.17;;
21615;SDS011;10970;48.714;9.584;2023-06-22T09:45:13;1.27;;;0.97;;
21615;SDS011;10970;48.714;9.584;2023-06-22T09:47:38;1.60;;;1.40;;
21615;SDS011;10970;48.714;9.584;2023-06-22T09:50:05;1.17;;;1.07;;
21615;SDS011;10970;48.714;9.584;2023-06-22T09:52:31;1.57;;;1.30;;
21615;SDS011;10970;48.714;9.584;2023-06-22T09:54:56;4.27;;;1.27;;
21615;SDS011;10970;48.714;9.584;2023-06-22T09:57:22;2.20;;;1.77;;
21615;SDS011;10970;48.714;9.584;2023-06-22T09:59:48;3.90;;;1.67;;
21615;SDS011;10970;48.714;9.584;2023-06-22T10:02:13;4.10;;;2.03;;
21615;SDS011;10970;48.714;9.584;2023-06-22T10:04:39;2.63;;;2.03;;
21615;SDS011;10970;48.714;9.584;2023-06-22T10:07:05;1.20;;;1.10;;
21615;SDS011;10970;48.714;9.584;2023-06-22T10:09:31;1.30;;;1.10;;
21615;SDS011;10970;48.714;9.584;2023-06-22T10:11:57;1.20;;;1.10;;
21615;SDS011;10970;48.714;9.584;2023-06-22T10:14:22;1.40;;;1.30;;
21615;SDS011;10970;48.714;9.584;2023-06-22T10:16:50;2.60;;;1.03;;
21615;SDS011;10970;48.714;9.584;2023-06-22T10:19:17;1.60;;;1.47;;
21615;SDS011;10970;48.714;9.584;2023-06-22T10:21:43;2.37;;;1.10;;
21615;SDS011;10970;48.714;9.584;2023-06-22T10:24:08;2.23;;;1.30;;
21615;SDS011;10970;48.714;9.584;2023-06-22T10:26:34;1.73;;;1.00;;
21615;SDS011;10970;48.714;9.584;2023-06-22T10:29:01;1.33;;;1.20;;
21615;SDS011;10970;48.714;9.584;2023-06-22T10:31:28;2.97;;;1.20;;
21615;SDS011;10970;48.714;9.584;2023-06-22T10:33:54;3.07;;;2.17;;
21615;SDS011;10970;48.714;9.584;2023-06-22T10:36:20;2.00;;;1.40;;
21615;SDS011;10970;48.714;9.584;2023-06-22T10:38:47;2.23;;;1.70;;
21615;SDS011;10970;48.714;9.584;2023-06-22T10:41:13;3.83;;;1.50;;
21615;SDS011;10970;48.714;9.584;2023-06-22T10:43:39;1.47;;;1.37;;
21615;SDS011;10970;48.714;9.584;2023-06-22T10:46:04;1.63;;;1.43;;
21615;SDS011;10970;48.714;9.584;2023-06-22T10:48:31;0.90;;;0.80;;
21615;SDS011;10970;48.714;9.584;2023-06-22T10:50:57;1.90;;;1.00;;
21615;SDS011;10970;48.714;9.584;2023-06-22T10:53:22;1.63;;;1.00;;
21615;SDS011;10970;48.714;9.584;2023-06-22T10:55:48;1.80;;;1.70;;
21615;SDS011;10970;48.714;9.584;2023-06-22T10:58:14;2.10;;;1.30;;
21615;SDS011;10970;48.714;9.584;2023-06-22T11:00:40;2.10;;;1.50;;
21615;SDS011;10970;48.714;9.584;2023-06-22T11:03:05;1.30;;;1.10;;
21615;SDS011;10970;48.714;9.584;2023-06-22T11:05:31;1.77;;;1.37;;
21615;SDS011;10970;48.714;9.584;2023-06-22T11:07:57;2.90;;;1.20;;
21615;SDS011;10970;48.714;9.584;2023-06-22T11:10:22;1.13;;;0.90;;
21615;SDS011;10970;48.714;9.584;2023-06-22T11:12:48;1.30;;;1.20;;
21615;SDS011;10970;48.714;9.584;2023-06-22T11:15:14;1.13;;;1.00;;
21615;SDS011;10970;48.714;9.584;2023-06-22T11:17:39;2.63;;;1.20;;
21615;SDS011;10970;48.714;9.584;2023-06-22T11:20:05;5.20;;;1.40;;
21615;SDS011;10970;48.714;9.584;2023-06-22T11:22:36;3.53;;;1.17;;
21615;SDS011;10970;48.714;9.584;2023-06-22T11:25:05;2.40;;;1.63;;
21615;SDS011;10970;48.714;9.584;2023-06-22T11:27:32;1.40;;;1.23;;
21615;SDS011;10970;48.714;9.584;2023-06-22T11:29:57;1.63;;;1.53;;
21615;SDS011;10970;48.714;9.584;2023-06-22T11:32:23;1.70;;;1.10;;
21615;SDS011;10970;48.714;9.584;2023-06-22T11:34:49;3.67;;;1.23;;
21615;SDS011;10970;48.714;9.584;2023-06-22T11:37:15;3.60;;;1.63;;
21615;SDS011;10970;48.714;9.584;2023-06-22T11:39:44;1.50;;;1.40;;
21615;SDS011;10970;48.714;9.584;2023-06-22T11:42:10;2.30;;;1.37;;
21615;SDS011;10970;48.714;9.584;2023-06-22T11:44:36;2.50;;;1.50;;
21615;SDS011;10970;48.714;9.584;2023-06-22T11:47:01;2.00;;;1.50;;
21615;SDS011;10970;48.714;9.584;2023-06-22T11:49:30;1.60;;;1.27;;
21615;SDS011;10970;48.714;9.584;2023-06-22T11:51:56;2.83;;;1.63;;
21615;SDS011;10970;48.714;9.584;2023-06-22T11:54:22;3.77;;;1.40;;
21615;SDS011;10970;48.714;9.584;2023-06-22T11:56:47;1.80;;;1.43;;
21615;SDS011;10970;48.714;9.584;2023-06-22T11:59:13;1.17;;;0.93;;
21615;SDS011;10970;48.714;9.584;2023-06-22T12:01:39;1.93;;;1.60;;
21615;SDS011;10970;48.714;9.584;2023-06-22T12:04:05;3.73;;;1.40;;
21615;SDS011;10970;48.714;9.584;2023-06-22T12:06:35;1.33;;;1.17;;
21615;SDS011;10970;48.714;9.584;2023-06-22T12:09:03;3.10;;;2.27;;
21615;SDS011;10970;48.714;9.584;2023-06-22T12:11:30;1.27;;;1.17;;
21615;SDS011;10970;48.714;9.584;2023-06-22T12:13:55;1.63;;;1.10;;
21615;SDS011;10970;48.714;9.584;2023-06-22T12:16:21;2.10;;;1.50;;
21615;SDS011;10970;48.714;9.584;2023-06-22T12:18:47;2.27;;;1.40;;
21615;SDS011;10970;48.714;9.584;2023-06-22T12:21:13;1.50;;;1.30;;
21615;SDS011;10970;48.714;9.584;2023-06-22T12:23:39;3.43;;;1.90;;
21615;SDS011;10970;48.714;9.584;2023-06-22T12:26:04;2.63;;;1.47;;
21615;SDS011;10970;48.714;9.584;2023-06-22T12:28:30;1.97;;;1.70;;
21615;SDS011;10970;48.714;9.584;2023-06-22T12:30:56;1.50;;;1.00;;
21615;SDS011;10970;48.714;9.584;2023-06-22T12:33:21;2.27;;;1.60;;
21615;SDS011;10970;48.714;9.584;2023-06-22T12:35:47;1.10;;;0.93;;
21615;SDS011;10970;48.714;9.584;2023-06-22T12:38:14;2.70;;;1.10;;
21615;SDS011;10970;48.714;9.584;2023-06-22T12:40:39;1.83;;;0.90;;
21615;SDS011;10970;48.714;9.584;2023-06-22T12:43:05;1.10;;;0.97;;
21615;SDS011;10970;48.714;9.584;2023-06-22T12:45:32;5.50;;;1.20;;
21615;SDS011;10970;48.714;9.584;2023-06-22T12:47:59;2.67;;;1.73;;
21615;SDS011;10970;48.714;9.584;2023-06-22T12:50:25;2.80;;;1.77;;
21615;SDS011;10970;48.714;9.584;2023-06-22T12:52:51;1.13;;;0.90;;
21615;SDS011;10970;48.714;9.584;2023-06-22T12:55:17;2.17;;;1.27;;
21615;SDS011;10970;48.714;9.584;2023-06-22T12:57:42;2.27;;;1.30;;
21615;SDS011;10970;48.714;9.584;2023-06-22T13:00:08;2.07;;;1.40;;
21615;SDS011;10970;48.714;9.584;2023-06-22T13:02:36;1.17;;;1.07;;
21615;SDS011;10970;48.714;9.584;2023-06-22T13:05:02;1.60;;;1.40;;
21615;SDS011;10970;48.714;9.584;2023-06-22T13:07:30;1.97;;;1.77;;
21615;SDS011;10970;48.714;9.584;2023-06-22T13:09:55;2.97;;;1.73;;
21615;SDS011;10970;48.714;9.584;2023-06-22T13:12:21;1.10;;;1.00;;
21615;SDS011;10970;48.714;9.584;2023-06-22T13:14:47;1.20;;;1.10;;
21615;SDS011;10970;48.714;9.584;2023-06-22T13:17:13;2.00;;;1.63;;
21615;SDS011;10970;48.714;9.584;2023-06-22T13:19:40;2.70;;;1.50;;
21615;SDS011;10970;48.714;9.584;2023-06-22T13:22:10;2.93;;;1.40;;
21615;SDS011;10970;48.714;9.584;2023-06-22T13:24:54;3.53;;;1.60;;
21615;SDS011;10970;48.714;9.584;2023-06-22T13:27:20;1.77;;;1.10;;
21615;SDS011;10970;48.714;9.584;2023-06-22T13:29:45;1.20;;;0.90;;
21615;SDS011;10970;48.714;9.584;2023-06-22T13:32:11;1.43;;;1.33;;
21615;SDS011;10970;48.714;9.584;2023-06-22T13:34:37;1.33;;;1.10;;
21615;SDS011;10970;48.714;9.584;2023-06-22T13:37:02;1.10;;;1.00;;
21615;SDS011;10970;48.714;9.584;2023-06-22T13:39:28;3.83;;;1.60;;
21615;SDS011;10970;48.714;9.584;2023-06-22T13:41:54;1.10;;;1.00;;
21615;SDS011;10970;48.714;9.584;2023-06-22T13:44:19;1.50;;;1.23;;
21615;SDS011;10970;48.714;9.584;2023-06-22T13:46:47;3.73;;;1.20;;
21615;SDS011;10970;48.714;9.584;2023-06-22T13:49:13;1.30;;;1.20;;
21615;SDS011;10970;48.714;9.584;2023-06-22T13:51:38;2.57;;;1.40;;
21615;SDS011;10970;48.714;9.584;2023-06-22T13:54:04;3.00;;;1.10;;
21615;SDS011;10970;48.714;9.584;2023-06-22T13:56:30;2.23;;;1.80;;
21615;SDS011;10970;48.714;9.584;2023-06-22T13:58:55;2.63;;;1.40;;
21615;SDS011;10970;48.714;9.584;2023-06-22T14:01:21;1.63;;;1.10;;
21615;SDS011;10970;48.714;9.584;2023-06-22T14:03:47;1.73;;;1.30;;
21615;SDS011;10970;48.714;9.584;2023-06-22T14:06:13;1.77;;;1.27;;
21615;SDS011;10970;48.714;9.584;2023-06-22T14:08:39;1.83;;;1.67;;
21615;SDS011;10970;48.714;9.584;2023-06-22T14:11:04;3.13;;;1.20;;
21615;SDS011;10970;48.714;9.584;2023-06-22T14:13:30;2.80;;;1.10;;
21615;SDS011;10970;48.714;9.584;2023-06-22T14:15:56;1.60;;;1.20;;
21615;SDS011;10970;48.714;9.584;2023-06-22T14:18:21;2.83;;;1.10;;
21615;SDS011;10970;48.714;9.584;2023-06-22T14:20:48;2.10;;;1.00;;
21615;SDS011;10970;48.714;9.584;2023-06-22T14:23:14;1.37;;;1.27;;
21615;SDS011;10970;48.714;9.584;2023-06-22T14:25:40;2.80;;;1.37;;
21615;SDS011;10970;48.714;9.584;2023-06-22T14:28:05;1.77;;;1.67;;
21615;SDS011;10970;48.714;9.584;2023-06-22T14:30:31;1.50;;;0.90;;
21615;SDS011;10970;48.714;9.584;2023-06-22T14:32:57;2.70;;;1.17;;
21615;SDS011;10970;48.714;9.584;2023-06-22T14:35:22;1.20;;;1.10;;
21615;SDS011;10970;48.714;9.584;2023-06-22T14:37:49;2.10;;;1.30;;
21615;SDS011;10970;48.714;9.584;2023-06-22T14:40:15;1.70;;;0.87;;
21615;SDS011;10970;48.714;9.584;2023-06-22T14:42:41;1.53;;;1.27;;
21615;SDS011;10970;48.714;9.584;2023-06-22T14:45:06;2.07;;;1.30;;
21615;SDS011;10970;48.714;9.584;2023-06-22T14:47:32;1.13;;;1.00;;
21615;SDS011;10970;48.714;9.584;2023-06-22T14:49:58;1.70;;;1.60;;